sensor_id;sensor_type;location;lat;lon;timestamp;P1;durP1;ratioP1;P2;durP2;ratioP2
8885;SDS011;4479;51.162;13.906;2023-03-23T00:09:38;1.10;;;0.90;;
8885;SDS011;4479;51.162;13.906;2023-03-23T00:19:43;2.30;;;1.23;;
8885;SDS011;4479;51.162;13.906;2023-03-23T00:29:48;1.00;;;0.83;;
8885;SDS011;4479;51.162;13.906;2023-03-23T00:39:54;1.20;;;0.80;;
8885;SDS011;4479;51.162;13.906;2023-03-23T00:49:57;1.57;;;0.80;;
8885;SDS011;4479;51.162;13.906;2023-03-23T01:00:01;2.13;;;0.70;;
8885;SDS011;4479;51.162;13.906;2023-03-23T01:10:10;0.73;;;0.70;;
8885;SDS011;4479;51.162;13.906;2023-03-23T01:20:17;0.93;;;0.80;;
8885;SDS011;4479;51.162;13.906;2023-03-23T01:30:20;0.90;;;0.80;;
8885;SDS011;4479;51.162;13.906;2023-03-23T01:40:26;0.70;;;0.70;;
8885;SDS011;4479;51.162;13.906;2023-03-23T01:50:30;0.93;;;0.70;;
8885;SDS011;4479;51.162;13.906;2023-03-23T02:00:37;0.70;;;0.70;;
8885;SDS011;4479;51.162;13.906;2023-03-23T02:10:43;0.77;;;0.70;;
8885;SDS011;4479;51.162;13.906;2023-03-23T02:20:56;0.70;;;0.53;;
8885;SDS011;4479;51.162;13.906;2023-03-23T02:31:37;0.60;;;0.60;;
8885;SDS011;4479;51.162;13.906;2023-03-23T02:41:49;0.63;;;0.53;;
8885;SDS011;4479;51.162;13.906;2023-03-23T02:51:53;0.50;;;0.50;;
8885;SDS011;4479;51.162;13.906;2023-03-23T03:12:17;1.60;;;0.70;;
8885;SDS011;4479;51.162;13.906;2023-03-23T03:22:26;0.80;;;0.50;;
8885;SDS011;4479;51.162;13.906;2023-03-23T03:32:31;0.50;;;0.47;;
8885;SDS011;4479;51.162;13.906;2023-03-23T03:42:41;1.50;;;0.47;;
8885;SDS011;4479;51.162;13.906;2023-03-23T03:52:44;1.57;;;0.70;;
8885;SDS011;4479;51.162;13.906;2023-03-23T04:02:49;0.67;;;0.60;;
8885;SDS011;4479;51.162;13.906;2023-03-23T04:13:04;0.70;;;0.70;;
8885;SDS011;4479;51.162;13.906;2023-03-23T04:23:28;1.37;;;0.70;;
8885;SDS011;4479;51.162;13.906;2023-03-23T04:33:35;0.93;;;0.70;;
8885;SDS011;4479;51.162;13.906;2023-03-23T04:43:42;0.70;;;0.67;;
8885;SDS011;4479;51.162;13.906;2023-03-23T04:53:54;0.80;;;0.80;;
8885;SDS011;4479;51.162;13.906;2023-03-23T05:03:59;0.60;;;0.60;;
8885;SDS011;4479;51.162;13.906;2023-03-23T05:14:03;1.20;;;1.10;;
8885;SDS011;4479;51.162;13.906;2023-03-23T05:24:07;2.47;;;1.10;;
8885;SDS011;4479;51.162;13.906;2023-03-23T05:34:10;2.17;;;1.20;;
8885;SDS011;4479;51.162;13.906;2023-03-23T05:44:23;1.70;;;1.10;;
8885;SDS011;4479;51.162;13.906;2023-03-23T05:54:28;4.20;;;3.30;;
8885;SDS011;4479;51.162;13.906;2023-03-23T06:04:32;1.33;;;1.17;;
8885;SDS011;4479;51.162;13.906;2023-03-23T06:14:44;2.80;;;1.20;;
8885;SDS011;4479;51.162;13.906;2023-03-23T06:24:50;2.37;;;1.20;;
8885;SDS011;4479;51.162;13.906;2023-03-23T06:35:00;1.73;;;0.90;;
8885;SDS011;4479;51.162;13.906;2023-03-23T06:45:29;0.93;;;0.70;;
8885;SDS011;4479;51.162;13.906;2023-03-23T06:56:10;0.80;;;0.80;;
8885;SDS011;4479;51.162;13.906;2023-03-23T07:06:16;0.80;;;0.70;;
8885;SDS011;4479;51.162;13.906;2023-03-23T07:16:25;1.73;;;0.97;;
8885;SDS011;4479;51.162;13.906;2023-03-23T07:26:29;0.90;;;0.80;;
8885;SDS011;4479;51.162;13.906;2023-03-23T07:36:33;1.20;;;0.77;;
8885;SDS011;4479;51.162;13.906;2023-03-23T07:46:40;0.70;;;0.70;;
8885;SDS011;4479;51.162;13.906;2023-03-23T07:57:01;0.90;;;0.80;;
8885;SDS011;4479;51.162;13.906;2023-03-23T08:07:08;0.97;;;0.70;;
8885;SDS011;4479;51.162;13.906;2023-03-23T08:17:21;0.80;;;0.80;;
8885;SDS011;4479;51.162;13.906;2023-03-23T08:27:53;3.57;;;0.97;;
8885;SDS011;4479;51.162;13.906;2023-03-23T08:38:08;0.93;;;0.83;;
8885;SDS011;4479;51.162;13.906;2023-03-23T08:48:28;1.93;;;1.00;;
8885;SDS011;4479;51.162;13.906;2023-03-23T08:58:49;1.10;;;1.00;;
8885;SDS011;4479;51.162;13.906;2023-03-23T09:09:15;1.10;;;0.90;;
8885;SDS011;4479;51.162;13.906;2023-03-23T09:19:18;1.10;;;0.80;;
8885;SDS011;4479;51.162;13.906;2023-03-23T09:29:22;1.20;;;1.10;;
8885;SDS011;4479;51.162;13.906;2023-03-23T09:39:25;1.23;;;1.00;;
8885;SDS011;4479;51.162;13.906;2023-03-23T09:49:32;0.90;;;0.90;;
8885;SDS011;4479;51.162;13.906;2023-03-23T09:59:38;1.10;;;1.00;;
8885;SDS011;4479;51.162;13.906;2023-03-23T10:09:44;1.80;;;1.00;;
8885;SDS011;4479;51.162;13.906;2023-03-23T10:19:51;1.10;;;1.00;;
8885;SDS011;4479;51.162;13.906;2023-03-23T10:30:00;1.23;;;1.13;;
8885;SDS011;4479;51.162;13.906;2023-03-23T10:40:05;1.20;;;1.10;;
8885;SDS011;4479;51.162;13.906;2023-03-23T10:50:16;2.00;;;1.00;;
8885;SDS011;4479;51.162;13.906;2023-03-23T11:00:25;1.40;;;0.70;;
8885;SDS011;4479;51.162;13.906;2023-03-23T11:10:35;1.20;;;0.90;;
8885;SDS011;4479;51.162;13.906;2023-03-23T11:20:39;1.10;;;0.87;;
8885;SDS011;4479;51.162;13.906;2023-03-23T11:30:48;1.50;;;0.90;;
8885;SDS011;4479;51.162;13.906;2023-03-23T11:40:54;1.33;;;1.00;;
8885;SDS011;4479;51.162;13.906;2023-03-23T11:50:59;1.13;;;0.90;;
8885;SDS011;4479;51.162;13.906;2023-03-23T12:01:04;0.90;;;0.90;;
8885;SDS011;4479;51.162;13.906;2023-03-23T12:11:15;4.93;;;3.80;;
8885;SDS011;4479;51.162;13.906;2023-03-23T12:21:24;2.50;;;1.70;;
8885;SDS011;4479;51.162;13.906;2023-03-23T12:31:33;2.23;;;1.03;;
8885;SDS011;4479;51.162;13.906;2023-03-23T12:41:41;4.00;;;3.30;;
8885;SDS011;4479;51.162;13.906;2023-03-23T12:51:51;1.23;;;0.90;;
8885;SDS011;4479;51.162;13.906;2023-03-23T13:01:59;1.00;;;0.90;;
8885;SDS011;4479;51.162;13.906;2023-03-23T13:12:07;0.87;;;0.87;;
8885;SDS011;4479;51.162;13.906;2023-03-23T13:22:13;1.13;;;1.03;;
8885;SDS011;4479;51.162;13.906;2023-03-23T13:32:19;1.10;;;1.00;;
8885;SDS011;4479;51.162;13.906;2023-03-23T13:42:22;1.10;;;0.90;;
8885;SDS011;4479;51.162;13.906;2023-03-23T13:52:37;1.13;;;1.03;;
8885;SDS011;4479;51.162;13.906;2023-03-23T14:02:41;1.33;;;1.23;;
8885;SDS011;4479;51.162;13.906;2023-03-23T14:12:52;1.47;;;1.20;;
8885;SDS011;4479;51.162;13.906;2023-03-23T14:22:55;1.00;;;0.90;;
8885;SDS011;4479;51.162;13.906;2023-03-23T14:33:03;2.03;;;0.80;;
8885;SDS011;4479;51.162;13.906;2023-03-23T14:43:08;1.10;;;0.90;;
8885;SDS011;4479;51.162;13.906;2023-03-23T14:53:16;1.23;;;0.90;;
8885;SDS011;4479;51.162;13.906;2023-03-23T15:03:22;2.20;;;1.00;;
8885;SDS011;4479;51.162;13.906;2023-03-23T15:13:27;0.70;;;0.70;;
8885;SDS011;4479;51.162;13.906;2023-03-23T15:23:29;1.23;;;1.13;;
8885;SDS011;4479;51.162;13.906;2023-03-23T15:33:36;2.40;;;2.00;;
8885;SDS011;4479;51.162;13.906;2023-03-23T15:43:48;1.20;;;1.10;;
8885;SDS011;4479;51.162;13.906;2023-03-23T15:53:54;1.20;;;1.10;;
8885;SDS011;4479;51.162;13.906;2023-03-23T16:03:57;1.40;;;1.00;;
8885;SDS011;4479;51.162;13.906;2023-03-23T16:14:03;1.07;;;0.90;;
8885;SDS011;4479;51.162;13.906;2023-03-23T16:24:06;1.60;;;1.40;;
8885;SDS011;4479;51.162;13.906;2023-03-23T16:34:10;1.83;;;0.70;;
8885;SDS011;4479;51.162;13.906;2023-03-23T16:44:13;15.37;;;12.93;;
8885;SDS011;4479;51.162;13.906;2023-03-23T16:54:17;21.00;;;16.33;;
8885;SDS011;4479;51.162;13.906;2023-03-23T17:04:19;5.27;;;4.70;;
8885;SDS011;4479;51.162;13.906;2023-03-23T17:14:23;6.60;;;5.90;;
8885;SDS011;4479;51.162;13.906;2023-03-23T17:24:26;2.30;;;1.73;;
8885;SDS011;4479;51.162;13.906;2023-03-23T17:34:32;1.70;;;1.50;;
8885;SDS011;4479;51.162;13.906;2023-03-23T17:44:35;1.50;;;1.20;;
8885;SDS011;4479;51.162;13.906;2023-03-23T17:54:39;4.27;;;2.43;;
8885;SDS011;4479;51.162;13.906;2023-03-23T18:04:41;1.97;;;1.07;;
8885;SDS011;4479;51.162;13.906;2023-03-23T18:14:45;23.37;;;19.77;;
8885;SDS011;4479;51.162;13.906;2023-03-23T18:24:48;17.53;;;15.40;;
8885;SDS011;4479;51.162;13.906;2023-03-23T18:34:55;14.70;;;9.53;;
8885;SDS011;4479;51.162;13.906;2023-03-23T18:44:58;4.07;;;3.30;;
8885;SDS011;4479;51.162;13.906;2023-03-23T18:55:02;2.40;;;2.10;;
8885;SDS011;4479;51.162;13.906;2023-03-23T19:05:05;3.90;;;2.20;;
8885;SDS011;4479;51.162;13.906;2023-03-23T19:26:59;3.93;;;2.97;;
8885;SDS011;4479;51.162;13.906;2023-03-23T19:37:02;2.93;;;2.63;;
8885;SDS011;4479;51.162;13.906;2023-03-23T19:47:07;3.63;;;3.30;;
8885;SDS011;4479;51.162;13.906;2023-03-23T19:57:10;1.80;;;1.70;;
8885;SDS011;4479;51.162;13.906;2023-03-23T20:07:17;1.93;;;1.60;;
8885;SDS011;4479;51.162;13.906;2023-03-23T20:17:19;2.20;;;1.70;;
8885;SDS011;4479;51.162;13.906;2023-03-23T20:27:23;2.87;;;2.33;;
8885;SDS011;4479;51.162;13.906;2023-03-23T20:37:25;1.60;;;1.50;;
8885;SDS011;4479;51.162;13.906;2023-03-23T20:47:29;2.00;;;1.80;;
8885;SDS011;4479;51.162;13.906;2023-03-23T20:57:32;1.60;;;1.50;;
8885;SDS011;4479;51.162;13.906;2023-03-23T21:07:36;1.70;;;1.60;;
8885;SDS011;4479;51.162;13.906;2023-03-23T21:17:38;1.50;;;1.40;;
8885;SDS011;4479;51.162;13.906;2023-03-23T21:27:42;1.20;;;1.00;;
8885;SDS011;4479;51.162;13.906;2023-03-23T21:37:44;1.00;;;0.90;;
8885;SDS011;4479;51.162;13.906;2023-03-23T21:47:49;1.10;;;1.00;;
8885;SDS011;4479;51.162;13.906;2023-03-23T21:57:55;1.33;;;0.80;;
8885;SDS011;4479;51.162;13.906;2023-03-23T22:07:59;0.80;;;0.80;;
8885;SDS011;4479;51.162;13.906;2023-03-23T22:18:01;1.00;;;0.90;;
8885;SDS011;4479;51.162;13.906;2023-03-23T22:28:05;2.43;;;1.70;;
8885;SDS011;4479;51.162;13.906;2023-03-23T22:38:08;0.90;;;0.90;;
8885;SDS011;4479;51.162;13.906;2023-03-23T22:48:12;1.60;;;1.10;;
8885;SDS011;4479;51.162;13.906;2023-03-23T22:58:15;1.00;;;0.90;;
8885;SDS011;4479;51.162;13.906;2023-03-23T23:08:20;0.90;;;0.90;;
8885;SDS011;4479;51.162;13.906;2023-03-23T23:18:24;1.00;;;1.00;;
8885;SDS011;4479;51.162;13.906;2023-03-23T23:28:28;1.07;;;0.90;;
8885;SDS011;4479;51.162;13.906;2023-03-23T23:38:31;1.70;;;1.10;;
8885;SDS011;4479;51.162;13.906;2023-03-23T23:48:34;0.87;;;0.87;;
8885;SDS011;4479;51.162;13.906;2023-03-23T23:58:37;1.20;;;1.10;;
